Terminal Aerodrome Forecast
Issued by NWS Upton, NY

Current Version | Previous Version | Text Only | Print | Product List | Glossary On
Versions: 1 2 3 4 5 6 7 8 9 10 11 12 13 14 15 16 17 18 19 20 21 22 23 24 25 26 27 28 29 30 31 32
560
FTUS41 KOKX 071331 AAA
TAFJFK
TAF AMD
KJFK 071331Z 0714/0818 03007KT P6SM BKN008
      TEMPO 0714/0716 -DZ
     FM071600 32006KT P6SM SCT008 OVC015
     FM072100 30008KT P6SM BKN020
     FM080100 31007KT P6SM SCT020 BKN150
     FM081300 27012G18KT P6SM BKN100=

USA.gov is the U.S. government's official web portal to all federal, state and local government web resources and services.